Dighton, MA (02715)

5:40 AM EST on February 09, 2016 (GMT -0500)
Tony's Way | | Change Station
CLOSE
Current Station
Personal Weather Station
Location: Dighton, MA
Elevation: 49 ft
Nearby Weather Stations

Elev 49 ft 41.82 °N, 71.13 °W | Updated 13 minutes ago

Overcast
Overcast
20.3 °F
Feels Like 20 °F
N
0.0
Wind Variable Wind from NW

Today
High -- | Low -- °F
--% Chance of Precip.
Yesterday
High -- | Low -- °F
Precip. -- in
Pressure 29.72 in
Visibility 10.0 miles
Clouds Overcast 1000 ft
Windchill 20 °F
Dew Point 20 °F
Humidity 97%
Rainfall 0.00 in
Snow Depth Not available.
6:48 AM 5:09 PM
New Moon, 1% visible
SPECI KTAN 091016Z AUTO 35005KT 10SM OVC010 M06/M08 A2972 RMK AO2 T10561078
Pressure 29.72 in
Visibility 10.0 miles
Clouds Overcast 1000 ft
Windchill 20 °F
Dew Point 20 °F
Humidity 97%
Rainfall 0.00 in
Snow Depth Not available.
6:48 AM 5:09 PM
New Moon, 1% visible
SPECI KTAN 091016Z AUTO 35005KT 10SM OVC010 M06/M08 A2972 RMK AO2 T10561078

10-Day Weather Forecast

Almanac

Astronomy

Feb. 09, 2016 Rise Set
Actual Time
Civil Twilight
Nautical Twilight
Astronomical Twilight
Moon
Length of Visible Light
Length of Day
Tomorrow will be .
, % of the Moon is Illuminated

Today's Extremes

State Highs State Lows

Community

WunderPhotos

Upload Photos

1,891,565 photos uploaded!

WunderBlog® & News

Nearby

Air Quality

  Air Quality AQ Index Pollutant
Not available.

Snow Depth

Station Depth Elevation

Earthquake Activity

City Distance Mag. Time & Date
Minimum magnitude displayed is 2.5.

Coastal Water Temperatures

Place Temperature

Stations

Nearby Weather Stations

Station Location Temp. Windchill Dew Point Humidity Wind Precip. Elev Updated Type
                   

Watches & Warnings

Special Statement
Issued: 4:04 AM EST Feb. 9, 2016 – National Weather Service

... Untreated roads will remain slippery for the morning rush
hour...

Scattered light snow showers and flurries will gradually come to
an end by mid morning... but some locations may receive a fresh
coating to one half inch of new snow. Otherwise... the main
concern is that with temperatures well below freezing untreated
roads will remain snow covered and slippery for the morning rush
hour. Motorists are urged to drive with extra caution.


Frank


404 am EST Tue Feb 9 2016

... Untreated roads will remain slippery for the morning rush
hour...

Scattered light snow showers and flurries will gradually come to
an end by mid morning... but some locations may receive a fresh
coating to one half inch of new snow. Otherwise... the main
concern is that with temperatures well below freezing untreated
roads will remain snow covered and slippery for the morning rush
hour. Motorists are urged to drive with extra caution.


Frank